sensor_id;sensor_type;location;lat;lon;timestamp;P1;durP1;ratioP1;P2;durP2;ratioP2
46006;SDS011;31738;50.188;8.524;2022-11-15T00:02:32;22.13;;;11.80;;
46006;SDS011;31738;50.188;8.524;2022-11-15T00:05:16;19.65;;;11.13;;
46006;SDS011;31738;50.188;8.524;2022-11-15T00:08:00;20.27;;;11.05;;
46006;SDS011;31738;50.188;8.524;2022-11-15T00:10:53;16.10;;;9.77;;
46006;SDS011;31738;50.188;8.524;2022-11-15T00:13:41;21.60;;;10.18;;
46006;SDS011;31738;50.188;8.524;2022-11-15T00:16:25;15.98;;;9.43;;
46006;SDS011;31738;50.188;8.524;2022-11-15T00:19:09;23.52;;;10.63;;
46006;SDS011;31738;50.188;8.524;2022-11-15T00:21:53;17.40;;;9.70;;
46006;SDS011;31738;50.188;8.524;2022-11-15T00:24:37;16.95;;;10.15;;
46006;SDS011;31738;50.188;8.524;2022-11-15T00:27:21;17.23;;;9.68;;
46006;SDS011;31738;50.188;8.524;2022-11-15T00:30:05;19.55;;;9.40;;
46006;SDS011;31738;50.188;8.524;2022-11-15T00:32:49;15.80;;;8.80;;
46006;SDS011;31738;50.188;8.524;2022-11-15T00:35:34;18.08;;;9.98;;
46006;SDS011;31738;50.188;8.524;2022-11-15T00:38:18;16.73;;;9.60;;
46006;SDS011;31738;50.188;8.524;2022-11-15T00:41:03;18.65;;;9.75;;
46006;SDS011;31738;50.188;8.524;2022-11-15T00:43:48;21.70;;;10.57;;
46006;SDS011;31738;50.188;8.524;2022-11-15T00:46:32;17.50;;;10.02;;
46006;SDS011;31738;50.188;8.524;2022-11-15T00:49:16;20.52;;;9.63;;
46006;SDS011;31738;50.188;8.524;2022-11-15T00:52:00;18.13;;;9.90;;
46006;SDS011;31738;50.188;8.524;2022-11-15T00:54:44;19.52;;;9.80;;
46006;SDS011;31738;50.188;8.524;2022-11-15T00:57:28;14.90;;;9.60;;
46006;SDS011;31738;50.188;8.524;2022-11-15T01:00:12;16.83;;;10.15;;
46006;SDS011;31738;50.188;8.524;2022-11-15T01:02:57;17.65;;;9.10;;
46006;SDS011;31738;50.188;8.524;2022-11-15T01:05:41;14.50;;;9.05;;
46006;SDS011;31738;50.188;8.524;2022-11-15T01:08:25;17.38;;;9.48;;
46006;SDS011;31738;50.188;8.524;2022-11-15T01:11:10;19.02;;;10.18;;
46006;SDS011;31738;50.188;8.524;2022-11-15T01:13:55;16.10;;;9.82;;
46006;SDS011;31738;50.188;8.524;2022-11-15T01:16:39;14.93;;;10.18;;
46006;SDS011;31738;50.188;8.524;2022-11-15T01:19:23;18.02;;;9.95;;
46006;SDS011;31738;50.188;8.524;2022-11-15T01:22:07;16.15;;;9.75;;
46006;SDS011;31738;50.188;8.524;2022-11-15T01:24:51;16.45;;;9.82;;
46006;SDS011;31738;50.188;8.524;2022-11-15T01:27:36;18.20;;;9.13;;
46006;SDS011;31738;50.188;8.524;2022-11-15T01:30:20;16.40;;;9.57;;
46006;SDS011;31738;50.188;8.524;2022-11-15T01:33:04;16.35;;;9.63;;
46006;SDS011;31738;50.188;8.524;2022-11-15T01:35:48;13.52;;;8.77;;
46006;SDS011;31738;50.188;8.524;2022-11-15T01:38:31;17.42;;;9.75;;
46006;SDS011;31738;50.188;8.524;2022-11-15T01:41:17;15.10;;;9.20;;
46006;SDS011;31738;50.188;8.524;2022-11-15T01:47:31;15.13;;;9.50;;
46006;SDS011;31738;50.188;8.524;2022-11-15T01:50:23;17.23;;;9.93;;
46006;SDS011;31738;50.188;8.524;2022-11-15T01:53:13;16.42;;;9.52;;
46006;SDS011;31738;50.188;8.524;2022-11-15T01:55:59;17.23;;;9.90;;
46006;SDS011;31738;50.188;8.524;2022-11-15T01:58:47;19.42;;;10.05;;
46006;SDS011;31738;50.188;8.524;2022-11-15T02:01:32;20.77;;;9.90;;
46006;SDS011;31738;50.188;8.524;2022-11-15T02:04:31;18.75;;;9.93;;
46006;SDS011;31738;50.188;8.524;2022-11-15T02:07:18;16.95;;;9.30;;
46006;SDS011;31738;50.188;8.524;2022-11-15T02:10:12;15.38;;;9.65;;
46006;SDS011;31738;50.188;8.524;2022-11-15T02:18:51;15.98;;;9.70;;
46006;SDS011;31738;50.188;8.524;2022-11-15T02:31:55;15.60;;;9.98;;
46006;SDS011;31738;50.188;8.524;2022-11-15T02:34:51;20.10;;;10.30;;
46006;SDS011;31738;50.188;8.524;2022-11-15T02:37:56;18.25;;;9.82;;
46006;SDS011;31738;50.188;8.524;2022-11-15T02:41:01;20.50;;;10.20;;
46006;SDS011;31738;50.188;8.524;2022-11-15T02:43:54;18.45;;;10.07;;
46006;SDS011;31738;50.188;8.524;2022-11-15T02:46:54;18.90;;;10.18;;
46006;SDS011;31738;50.188;8.524;2022-11-15T02:49:58;19.58;;;10.45;;
46006;SDS011;31738;50.188;8.524;2022-11-15T02:52:46;19.95;;;10.02;;
46006;SDS011;31738;50.188;8.524;2022-11-15T02:55:37;17.90;;;9.95;;
46006;SDS011;31738;50.188;8.524;2022-11-15T02:58:30;17.98;;;9.85;;
46006;SDS011;31738;50.188;8.524;2022-11-15T03:02:13;18.42;;;10.38;;
46006;SDS011;31738;50.188;8.524;2022-11-15T03:07:55;17.17;;;9.75;;
46006;SDS011;31738;50.188;8.524;2022-11-15T03:17:00;17.95;;;9.13;;
46006;SDS011;31738;50.188;8.524;2022-11-15T03:19:56;19.88;;;8.95;;
46006;SDS011;31738;50.188;8.524;2022-11-15T03:22:44;12.80;;;7.95;;
46006;SDS011;31738;50.188;8.524;2022-11-15T03:25:31;13.85;;;8.23;;
46006;SDS011;31738;50.188;8.524;2022-11-15T03:28:20;15.23;;;8.23;;
46006;SDS011;31738;50.188;8.524;2022-11-15T03:31:09;14.95;;;8.07;;
46006;SDS011;31738;50.188;8.524;2022-11-15T03:34:22;14.27;;;7.55;;
46006;SDS011;31738;50.188;8.524;2022-11-15T03:37:11;12.35;;;7.10;;
46006;SDS011;31738;50.188;8.524;2022-11-15T03:39:58;15.00;;;7.57;;
46006;SDS011;31738;50.188;8.524;2022-11-15T03:42:43;14.82;;;7.80;;
46006;SDS011;31738;50.188;8.524;2022-11-15T03:45:42;15.03;;;8.10;;
46006;SDS011;31738;50.188;8.524;2022-11-15T03:48:33;14.50;;;7.78;;
46006;SDS011;31738;50.188;8.524;2022-11-15T03:51:23;14.77;;;7.63;;
46006;SDS011;31738;50.188;8.524;2022-11-15T03:54:07;11.40;;;6.70;;
46006;SDS011;31738;50.188;8.524;2022-11-15T03:56:54;13.38;;;7.32;;
46006;SDS011;31738;50.188;8.524;2022-11-15T03:59:45;12.93;;;7.15;;
46006;SDS011;31738;50.188;8.524;2022-11-15T04:02:30;12.85;;;7.47;;
46006;SDS011;31738;50.188;8.524;2022-11-15T04:05:18;16.80;;;8.05;;
46006;SDS011;31738;50.188;8.524;2022-11-15T04:08:09;12.05;;;7.20;;
46006;SDS011;31738;50.188;8.524;2022-11-15T04:11:00;14.57;;;8.18;;
46006;SDS011;31738;50.188;8.524;2022-11-15T04:14:14;13.48;;;7.32;;
46006;SDS011;31738;50.188;8.524;2022-11-15T04:17:38;14.32;;;7.78;;
46006;SDS011;31738;50.188;8.524;2022-11-15T04:20:36;14.70;;;7.70;;
46006;SDS011;31738;50.188;8.524;2022-11-15T04:24:04;12.63;;;7.68;;
46006;SDS011;31738;50.188;8.524;2022-11-15T04:27:51;14.35;;;7.85;;
46006;SDS011;31738;50.188;8.524;2022-11-15T04:34:15;14.23;;;7.97;;
46006;SDS011;31738;50.188;8.524;2022-11-15T04:37:16;12.30;;;7.38;;
46006;SDS011;31738;50.188;8.524;2022-11-15T04:40:41;13.48;;;7.63;;
46006;SDS011;31738;50.188;8.524;2022-11-15T04:43:27;12.57;;;7.53;;
46006;SDS011;31738;50.188;8.524;2022-11-15T04:46:15;13.95;;;7.30;;
46006;SDS011;31738;50.188;8.524;2022-11-15T04:48:59;14.30;;;7.55;;
46006;SDS011;31738;50.188;8.524;2022-11-15T04:51:49;10.35;;;7.25;;
46006;SDS011;31738;50.188;8.524;2022-11-15T04:54:34;13.73;;;7.03;;
46006;SDS011;31738;50.188;8.524;2022-11-15T04:57:19;17.33;;;8.07;;
46006;SDS011;31738;50.188;8.524;2022-11-15T05:00:04;18.40;;;8.98;;
46006;SDS011;31738;50.188;8.524;2022-11-15T05:07:22;15.70;;;9.57;;
46006;SDS011;31738;50.188;8.524;2022-11-15T05:10:12;17.77;;;9.80;;
46006;SDS011;31738;50.188;8.524;2022-11-15T05:12:59;17.58;;;9.52;;
46006;SDS011;31738;50.188;8.524;2022-11-15T05:16:11;21.13;;;9.35;;
46006;SDS011;31738;50.188;8.524;2022-11-15T05:26:09;17.33;;;9.25;;
46006;SDS011;31738;50.188;8.524;2022-11-15T05:28:57;16.88;;;9.10;;
46006;SDS011;31738;50.188;8.524;2022-11-15T05:31:45;18.35;;;9.23;;
46006;SDS011;31738;50.188;8.524;2022-11-15T05:34:32;15.70;;;9.07;;
46006;SDS011;31738;50.188;8.524;2022-11-15T05:37:18;15.57;;;8.45;;
46006;SDS011;31738;50.188;8.524;2022-11-15T05:40:06;14.73;;;8.57;;
46006;SDS011;31738;50.188;8.524;2022-11-15T05:42:54;15.20;;;8.40;;
46006;SDS011;31738;50.188;8.524;2022-11-15T05:45:42;16.88;;;8.60;;
46006;SDS011;31738;50.188;8.524;2022-11-15T05:48:27;19.30;;;9.38;;
46006;SDS011;31738;50.188;8.524;2022-11-15T05:51:17;18.80;;;8.75;;
46006;SDS011;31738;50.188;8.524;2022-11-15T05:54:15;15.30;;;9.45;;
46006;SDS011;31738;50.188;8.524;2022-11-15T05:57:11;19.98;;;8.95;;
46006;SDS011;31738;50.188;8.524;2022-11-15T05:59:59;14.98;;;9.40;;
46006;SDS011;31738;50.188;8.524;2022-11-15T06:03:10;14.48;;;7.82;;
46006;SDS011;31738;50.188;8.524;2022-11-15T06:06:05;15.25;;;9.10;;
46006;SDS011;31738;50.188;8.524;2022-11-15T06:09:08;14.10;;;8.90;;
46006;SDS011;31738;50.188;8.524;2022-11-15T06:11:55;13.85;;;9.10;;
46006;SDS011;31738;50.188;8.524;2022-11-15T06:18:22;14.75;;;8.55;;
46006;SDS011;31738;50.188;8.524;2022-11-15T06:21:07;18.48;;;9.52;;
46006;SDS011;31738;50.188;8.524;2022-11-15T06:23:54;16.77;;;9.75;;
46006;SDS011;31738;50.188;8.524;2022-11-15T06:26:41;17.50;;;9.32;;
46006;SDS011;31738;50.188;8.524;2022-11-15T06:29:33;13.27;;;9.10;;
46006;SDS011;31738;50.188;8.524;2022-11-15T06:32:17;16.80;;;9.40;;
46006;SDS011;31738;50.188;8.524;2022-11-15T06:35:08;17.05;;;9.50;;
46006;SDS011;31738;50.188;8.524;2022-11-15T06:37:53;14.30;;;9.00;;
46006;SDS011;31738;50.188;8.524;2022-11-15T06:40:37;16.70;;;9.18;;
46006;SDS011;31738;50.188;8.524;2022-11-15T06:43:29;17.73;;;8.98;;
46006;SDS011;31738;50.188;8.524;2022-11-15T06:46:13;17.27;;;8.95;;
46006;SDS011;31738;50.188;8.524;2022-11-15T06:49:00;14.30;;;8.60;;
46006;SDS011;31738;50.188;8.524;2022-11-15T06:51:48;17.75;;;9.15;;
46006;SDS011;31738;50.188;8.524;2022-11-15T06:54:32;16.60;;;9.07;;
46006;SDS011;31738;50.188;8.524;2022-11-15T06:57:16;13.40;;;9.20;;
46006;SDS011;31738;50.188;8.524;2022-11-15T07:00:00;20.15;;;10.30;;
46006;SDS011;31738;50.188;8.524;2022-11-15T07:02:46;16.35;;;9.82;;
46006;SDS011;31738;50.188;8.524;2022-11-15T07:05:31;20.33;;;10.18;;
46006;SDS011;31738;50.188;8.524;2022-11-15T07:08:15;18.15;;;9.75;;
46006;SDS011;31738;50.188;8.524;2022-11-15T07:11:00;16.55;;;9.75;;
46006;SDS011;31738;50.188;8.524;2022-11-15T07:13:45;18.00;;;9.90;;
46006;SDS011;31738;50.188;8.524;2022-11-15T07:16:29;18.20;;;9.52;;
46006;SDS011;31738;50.188;8.524;2022-11-15T07:19:13;22.15;;;10.10;;
46006;SDS011;31738;50.188;8.524;2022-11-15T07:21:57;27.55;;;10.05;;
46006;SDS011;31738;50.188;8.524;2022-11-15T07:24:41;16.42;;;8.88;;
46006;SDS011;31738;50.188;8.524;2022-11-15T07:27:26;18.33;;;9.63;;
46006;SDS011;31738;50.188;8.524;2022-11-15T07:30:10;15.65;;;8.60;;
46006;SDS011;31738;50.188;8.524;2022-11-15T07:32:56;14.73;;;8.60;;
46006;SDS011;31738;50.188;8.524;2022-11-15T07:35:44;12.25;;;8.00;;
46006;SDS011;31738;50.188;8.524;2022-11-15T07:38:32;14.02;;;8.52;;
46006;SDS011;31738;50.188;8.524;2022-11-15T07:41:42;18.35;;;9.27;;
46006;SDS011;31738;50.188;8.524;2022-11-15T07:47:29;12.57;;;8.85;;
46006;SDS011;31738;50.188;8.524;2022-11-15T07:50:14;16.70;;;9.07;;
46006;SDS011;31738;50.188;8.524;2022-11-15T07:52:59;15.00;;;8.75;;
46006;SDS011;31738;50.188;8.524;2022-11-15T08:17:21;12.63;;;7.82;;
46006;SDS011;31738;50.188;8.524;2022-11-15T08:20:50;13.43;;;7.50;;
46006;SDS011;31738;50.188;8.524;2022-11-15T08:23:34;13.15;;;8.45;;
46006;SDS011;31738;50.188;8.524;2022-11-15T08:26:19;15.23;;;7.83;;
46006;SDS011;31738;50.188;8.524;2022-11-15T08:29:03;14.48;;;7.70;;
46006;SDS011;31738;50.188;8.524;2022-11-15T08:31:56;14.75;;;8.25;;
46006;SDS011;31738;50.188;8.524;2022-11-15T08:34:44;13.63;;;8.05;;
46006;SDS011;31738;50.188;8.524;2022-11-15T08:37:31;14.73;;;8.73;;
46006;SDS011;31738;50.188;8.524;2022-11-15T08:40:15;13.05;;;8.30;;
46006;SDS011;31738;50.188;8.524;2022-11-15T08:42:59;15.32;;;9.38;;
46006;SDS011;31738;50.188;8.524;2022-11-15T08:45:46;14.95;;;8.32;;
46006;SDS011;31738;50.188;8.524;2022-11-15T08:48:34;15.30;;;8.98;;
46006;SDS011;31738;50.188;8.524;2022-11-15T08:51:19;14.32;;;9.07;;
46006;SDS011;31738;50.188;8.524;2022-11-15T08:54:04;18.27;;;8.48;;
46006;SDS011;31738;50.188;8.524;2022-11-15T08:56:48;17.43;;;8.53;;
46006;SDS011;31738;50.188;8.524;2022-11-15T08:59:32;15.63;;;9.07;;
46006;SDS011;31738;50.188;8.524;2022-11-15T09:02:17;13.73;;;8.57;;
46006;SDS011;31738;50.188;8.524;2022-11-15T09:05:01;19.55;;;11.30;;
46006;SDS011;31738;50.188;8.524;2022-11-15T09:07:45;15.68;;;9.32;;
46006;SDS011;31738;50.188;8.524;2022-11-15T09:10:30;20.23;;;9.37;;
46006;SDS011;31738;50.188;8.524;2022-11-15T09:13:15;16.98;;;9.10;;
46006;SDS011;31738;50.188;8.524;2022-11-15T09:15:59;18.33;;;9.75;;
46006;SDS011;31738;50.188;8.524;2022-11-15T09:18:45;15.63;;;9.63;;
46006;SDS011;31738;50.188;8.524;2022-11-15T09:21:29;18.00;;;10.10;;
46006;SDS011;31738;50.188;8.524;2022-11-15T09:24:13;16.23;;;9.25;;
46006;SDS011;31738;50.188;8.524;2022-11-15T09:26:58;15.18;;;9.60;;
46006;SDS011;31738;50.188;8.524;2022-11-15T09:29:42;20.42;;;10.32;;
46006;SDS011;31738;50.188;8.524;2022-11-15T09:32:29;23.65;;;10.05;;
46006;SDS011;31738;50.188;8.524;2022-11-15T09:35:16;17.20;;;9.65;;
46006;SDS011;31738;50.188;8.524;2022-11-15T09:38:01;15.73;;;9.83;;
46006;SDS011;31738;50.188;8.524;2022-11-15T09:40:48;21.05;;;10.60;;
46006;SDS011;31738;50.188;8.524;2022-11-15T09:50:10;20.65;;;10.90;;
46006;SDS011;31738;50.188;8.524;2022-11-15T09:52:39;17.13;;;9.95;;
46006;SDS011;31738;50.188;8.524;2022-11-15T09:55:11;15.30;;;9.75;;
46006;SDS011;31738;50.188;8.524;2022-11-15T09:57:54;20.45;;;10.40;;
46006;SDS011;31738;50.188;8.524;2022-11-15T10:00:38;16.58;;;9.68;;
46006;SDS011;31738;50.188;8.524;2022-11-15T10:03:11;18.40;;;10.88;;
46006;SDS011;31738;50.188;8.524;2022-11-15T10:05:48;18.77;;;10.85;;
46006;SDS011;31738;50.188;8.524;2022-11-15T10:10:46;15.02;;;10.32;;
46006;SDS011;31738;50.188;8.524;2022-11-15T10:13:16;18.10;;;10.95;;
46006;SDS011;31738;50.188;8.524;2022-11-15T10:15:47;18.45;;;11.07;;
46006;SDS011;31738;50.188;8.524;2022-11-15T10:18:28;19.33;;;11.10;;
46006;SDS011;31738;50.188;8.524;2022-11-15T10:21:17;18.05;;;11.13;;
46006;SDS011;31738;50.188;8.524;2022-11-15T10:23:45;18.98;;;11.63;;
46006;SDS011;31738;50.188;8.524;2022-11-15T10:26:11;18.35;;;11.13;;
46006;SDS011;31738;50.188;8.524;2022-11-15T10:28:40;19.27;;;11.40;;
46006;SDS011;31738;50.188;8.524;2022-11-15T10:31:27;19.65;;;11.25;;
46006;SDS011;31738;50.188;8.524;2022-11-15T10:34:36;17.02;;;10.43;;
46006;SDS011;31738;50.188;8.524;2022-11-15T10:36:47;16.77;;;11.05;;
46006;SDS011;31738;50.188;8.524;2022-11-15T10:39:19;18.30;;;11.13;;
46006;SDS011;31738;50.188;8.524;2022-11-15T10:41:44;16.85;;;10.52;;
46006;SDS011;31738;50.188;8.524;2022-11-15T10:46:41;18.23;;;10.00;;
46006;SDS011;31738;50.188;8.524;2022-11-15T10:49:21;18.63;;;10.65;;
46006;SDS011;31738;50.188;8.524;2022-11-15T10:51:56;14.63;;;10.00;;
46006;SDS011;31738;50.188;8.524;2022-11-15T10:54:34;16.58;;;9.95;;
46006;SDS011;31738;50.188;8.524;2022-11-15T10:57:16;15.13;;;9.90;;
46006;SDS011;31738;50.188;8.524;2022-11-15T10:59:45;15.48;;;10.05;;
46006;SDS011;31738;50.188;8.524;2022-11-15T11:02:30;17.65;;;10.75;;
46006;SDS011;31738;50.188;8.524;2022-11-15T11:05:02;17.95;;;9.98;;
46006;SDS011;31738;50.188;8.524;2022-11-15T11:07:56;19.73;;;10.75;;
46006;SDS011;31738;50.188;8.524;2022-11-15T11:13:42;18.35;;;10.40;;
46006;SDS011;31738;50.188;8.524;2022-11-15T11:16:41;18.48;;;10.95;;
46006;SDS011;31738;50.188;8.524;2022-11-15T11:21:40;21.75;;;12.70;;
46006;SDS011;31738;50.188;8.524;2022-11-15T11:24:25;21.23;;;12.38;;
46006;SDS011;31738;50.188;8.524;2022-11-15T11:29:58;18.08;;;11.90;;
46006;SDS011;31738;50.188;8.524;2022-11-15T11:32:37;19.88;;;12.30;;
46006;SDS011;31738;50.188;8.524;2022-11-15T11:44:32;21.50;;;12.80;;
46006;SDS011;31738;50.188;8.524;2022-11-15T11:47:13;23.27;;;13.45;;
46006;SDS011;31738;50.188;8.524;2022-11-15T11:49:54;24.17;;;13.75;;
46006;SDS011;31738;50.188;8.524;2022-11-15T11:52:28;21.30;;;14.05;;
46006;SDS011;31738;50.188;8.524;2022-11-15T12:00:20;24.05;;;13.40;;
46006;SDS011;31738;50.188;8.524;2022-11-15T12:05:26;20.02;;;13.85;;
46006;SDS011;31738;50.188;8.524;2022-11-15T12:08:04;28.00;;;14.10;;
46006;SDS011;31738;50.188;8.524;2022-11-15T12:10:45;19.15;;;12.90;;
46006;SDS011;31738;50.188;8.524;2022-11-15T12:13:19;21.95;;;12.98;;
46006;SDS011;31738;50.188;8.524;2022-11-15T12:19:40;23.20;;;13.02;;
46006;SDS011;31738;50.188;8.524;2022-11-15T12:27:32;23.98;;;13.20;;
46006;SDS011;31738;50.188;8.524;2022-11-15T12:30:14;20.00;;;12.48;;
46006;SDS011;31738;50.188;8.524;2022-11-15T12:33:15;23.20;;;12.73;;
46006;SDS011;31738;50.188;8.524;2022-11-15T12:36:29;20.08;;;11.82;;
46006;SDS011;31738;50.188;8.524;2022-11-15T12:39:02;20.65;;;12.10;;
46006;SDS011;31738;50.188;8.524;2022-11-15T12:41:40;19.33;;;11.63;;
46006;SDS011;31738;50.188;8.524;2022-11-15T12:44:11;17.00;;;11.07;;
46006;SDS011;31738;50.188;8.524;2022-11-15T12:47:08;17.60;;;10.43;;
46006;SDS011;31738;50.188;8.524;2022-11-15T12:49:55;16.15;;;10.18;;
46006;SDS011;31738;50.188;8.524;2022-11-15T12:52:30;15.82;;;10.60;;
46006;SDS011;31738;50.188;8.524;2022-11-15T12:55:28;14.77;;;9.93;;
46006;SDS011;31738;50.188;8.524;2022-11-15T12:58:18;16.48;;;10.48;;
46006;SDS011;31738;50.188;8.524;2022-11-15T13:00:54;15.32;;;9.52;;
46006;SDS011;31738;50.188;8.524;2022-11-15T13:03:23;17.98;;;9.40;;
46006;SDS011;31738;50.188;8.524;2022-11-15T13:06:00;19.20;;;9.93;;
46006;SDS011;31738;50.188;8.524;2022-11-15T13:08:35;15.98;;;10.38;;
46006;SDS011;31738;50.188;8.524;2022-11-15T13:22:27;13.88;;;9.48;;
46006;SDS011;31738;50.188;8.524;2022-11-15T13:28:32;15.70;;;9.75;;
46006;SDS011;31738;50.188;8.524;2022-11-15T13:34:12;14.32;;;9.35;;
46006;SDS011;31738;50.188;8.524;2022-11-15T13:37:09;15.05;;;10.00;;
46006;SDS011;31738;50.188;8.524;2022-11-15T13:39:53;17.27;;;9.85;;
46006;SDS011;31738;50.188;8.524;2022-11-15T13:42:21;15.38;;;9.40;;
46006;SDS011;31738;50.188;8.524;2022-11-15T13:45:03;17.20;;;9.93;;
46006;SDS011;31738;50.188;8.524;2022-11-15T13:47:40;16.13;;;9.25;;
46006;SDS011;31738;50.188;8.524;2022-11-15T13:50:10;14.35;;;9.38;;
46006;SDS011;31738;50.188;8.524;2022-11-15T13:52:42;14.43;;;9.23;;
46006;SDS011;31738;50.188;8.524;2022-11-15T13:55:14;13.45;;;9.20;;
46006;SDS011;31738;50.188;8.524;2022-11-15T13:58:02;16.30;;;9.63;;
46006;SDS011;31738;50.188;8.524;2022-11-15T14:00:45;16.42;;;9.63;;
46006;SDS011;31738;50.188;8.524;2022-11-15T14:03:18;18.40;;;9.52;;
46006;SDS011;31738;50.188;8.524;2022-11-15T14:11:24;16.67;;;9.32;;
46006;SDS011;31738;50.188;8.524;2022-11-15T14:16:42;17.73;;;9.15;;
46006;SDS011;31738;50.188;8.524;2022-11-15T14:24:33;17.92;;;8.48;;
46006;SDS011;31738;50.188;8.524;2022-11-15T14:29:51;17.48;;;8.57;;
46006;SDS011;31738;50.188;8.524;2022-11-15T14:32:18;12.02;;;8.40;;
46006;SDS011;31738;50.188;8.524;2022-11-15T14:34:56;12.90;;;7.68;;
46006;SDS011;31738;50.188;8.524;2022-11-15T14:37:30;14.40;;;7.90;;
46006;SDS011;31738;50.188;8.524;2022-11-15T14:40:01;15.77;;;8.48;;
46006;SDS011;31738;50.188;8.524;2022-11-15T14:42:28;12.90;;;7.13;;
46006;SDS011;31738;50.188;8.524;2022-11-15T14:44:53;11.68;;;6.80;;
46006;SDS011;31738;50.188;8.524;2022-11-15T14:47:19;11.75;;;7.25;;
46006;SDS011;31738;50.188;8.524;2022-11-15T14:49:45;12.98;;;7.35;;
46006;SDS011;31738;50.188;8.524;2022-11-15T14:54:54;12.32;;;7.25;;
46006;SDS011;31738;50.188;8.524;2022-11-15T14:57:20;12.52;;;6.93;;
46006;SDS011;31738;50.188;8.524;2022-11-15T14:59:46;12.07;;;6.60;;
46006;SDS011;31738;50.188;8.524;2022-11-15T15:02:16;13.32;;;6.30;;
46006;SDS011;31738;50.188;8.524;2022-11-15T15:04:44;12.43;;;6.97;;
46006;SDS011;31738;50.188;8.524;2022-11-15T15:07:09;10.88;;;6.35;;
46006;SDS011;31738;50.188;8.524;2022-11-15T15:09:35;11.65;;;6.60;;
46006;SDS011;31738;50.188;8.524;2022-11-15T15:12:00;11.95;;;6.53;;
46006;SDS011;31738;50.188;8.524;2022-11-15T15:14:27;13.27;;;6.32;;
46006;SDS011;31738;50.188;8.524;2022-11-15T15:16:52;9.95;;;5.90;;
46006;SDS011;31738;50.188;8.524;2022-11-15T15:19:18;12.32;;;5.78;;
46006;SDS011;31738;50.188;8.524;2022-11-15T15:21:43;12.60;;;6.18;;
46006;SDS011;31738;50.188;8.524;2022-11-15T15:24:15;10.60;;;6.32;;
46006;SDS011;31738;50.188;8.524;2022-11-15T15:26:44;9.07;;;5.90;;
46006;SDS011;31738;50.188;8.524;2022-11-15T15:29:09;11.38;;;6.25;;
46006;SDS011;31738;50.188;8.524;2022-11-15T15:31:35;8.82;;;5.80;;
46006;SDS011;31738;50.188;8.524;2022-11-15T15:34:00;7.10;;;5.40;;
46006;SDS011;31738;50.188;8.524;2022-11-15T15:36:26;10.80;;;5.78;;
46006;SDS011;31738;50.188;8.524;2022-11-15T15:38:52;10.20;;;5.78;;
46006;SDS011;31738;50.188;8.524;2022-11-15T15:41:17;12.68;;;6.55;;
46006;SDS011;31738;50.188;8.524;2022-11-15T15:43:43;9.85;;;5.55;;
46006;SDS011;31738;50.188;8.524;2022-11-15T15:46:16;9.15;;;5.90;;
46006;SDS011;31738;50.188;8.524;2022-11-15T15:48:43;11.27;;;5.18;;
46006;SDS011;31738;50.188;8.524;2022-11-15T15:51:09;10.02;;;5.03;;
46006;SDS011;31738;50.188;8.524;2022-11-15T15:53:35;9.75;;;6.15;;
46006;SDS011;31738;50.188;8.524;2022-11-15T15:56:22;9.38;;;4.95;;
46006;SDS011;31738;50.188;8.524;2022-11-15T16:03:01;8.93;;;4.97;;
46006;SDS011;31738;50.188;8.524;2022-11-15T16:05:36;7.65;;;4.45;;
46006;SDS011;31738;50.188;8.524;2022-11-15T16:14:08;7.28;;;4.03;;
46006;SDS011;31738;50.188;8.524;2022-11-15T16:16:45;7.38;;;3.97;;
46006;SDS011;31738;50.188;8.524;2022-11-15T16:19:47;8.15;;;4.50;;
46006;SDS011;31738;50.188;8.524;2022-11-15T16:22:24;7.10;;;4.03;;
46006;SDS011;31738;50.188;8.524;2022-11-15T16:25:17;10.38;;;3.85;;
46006;SDS011;31738;50.188;8.524;2022-11-15T16:27:49;6.20;;;3.90;;
46006;SDS011;31738;50.188;8.524;2022-11-15T16:30:39;6.95;;;3.63;;
46006;SDS011;31738;50.188;8.524;2022-11-15T16:33:56;6.18;;;3.47;;
46006;SDS011;31738;50.188;8.524;2022-11-15T16:40:55;7.35;;;4.45;;
46006;SDS011;31738;50.188;8.524;2022-11-15T16:43:34;6.82;;;3.58;;
46006;SDS011;31738;50.188;8.524;2022-11-15T16:46:14;10.35;;;3.63;;
46006;SDS011;31738;50.188;8.524;2022-11-15T16:48:44;5.30;;;3.33;;
46006;SDS011;31738;50.188;8.524;2022-11-15T16:55:30;7.63;;;3.97;;
46006;SDS011;31738;50.188;8.524;2022-11-15T16:57:56;6.35;;;3.28;;
46006;SDS011;31738;50.188;8.524;2022-11-15T17:00:51;7.05;;;3.55;;
46006;SDS011;31738;50.188;8.524;2022-11-15T17:06:28;8.02;;;3.70;;
46006;SDS011;31738;50.188;8.524;2022-11-15T17:09:20;7.13;;;3.42;;
46006;SDS011;31738;50.188;8.524;2022-11-15T17:11:49;5.13;;;3.30;;
46006;SDS011;31738;50.188;8.524;2022-11-15T17:14:54;7.30;;;3.25;;
46006;SDS011;31738;50.188;8.524;2022-11-15T17:17:30;6.45;;;3.60;;
46006;SDS011;31738;50.188;8.524;2022-11-15T17:20:55;8.57;;;4.97;;
46006;SDS011;31738;50.188;8.524;2022-11-15T17:23:20;8.35;;;4.13;;
46006;SDS011;31738;50.188;8.524;2022-11-15T17:26:02;7.45;;;3.70;;
46006;SDS011;31738;50.188;8.524;2022-11-15T17:28:33;7.25;;;3.60;;
46006;SDS011;31738;50.188;8.524;2022-11-15T17:31:23;8.98;;;3.30;;
46006;SDS011;31738;50.188;8.524;2022-11-15T17:34:28;4.95;;;3.38;;
46006;SDS011;31738;50.188;8.524;2022-11-15T17:37:35;5.57;;;3.58;;
46006;SDS011;31738;50.188;8.524;2022-11-15T17:40:58;6.90;;;3.58;;
46006;SDS011;31738;50.188;8.524;2022-11-15T17:47:18;7.03;;;4.00;;
46006;SDS011;31738;50.188;8.524;2022-11-15T17:50:03;7.30;;;4.00;;
46006;SDS011;31738;50.188;8.524;2022-11-15T17:52:39;5.53;;;3.40;;
46006;SDS011;31738;50.188;8.524;2022-11-15T17:55:37;7.13;;;3.60;;
46006;SDS011;31738;50.188;8.524;2022-11-15T17:58:06;11.68;;;3.70;;
46006;SDS011;31738;50.188;8.524;2022-11-15T18:01:27;12.30;;;6.07;;
46006;SDS011;31738;50.188;8.524;2022-11-15T18:04:17;13.43;;;8.20;;
46006;SDS011;31738;50.188;8.524;2022-11-15T18:23:39;8.93;;;4.82;;
46006;SDS011;31738;50.188;8.524;2022-11-15T18:27:02;10.82;;;4.85;;
46006;SDS011;31738;50.188;8.524;2022-11-15T18:30:26;7.15;;;3.97;;
46006;SDS011;31738;50.188;8.524;2022-11-15T18:33:29;5.45;;;3.75;;
46006;SDS011;31738;50.188;8.524;2022-11-15T18:36:01;8.93;;;3.97;;
46006;SDS011;31738;50.188;8.524;2022-11-15T18:39:00;7.25;;;4.13;;
46006;SDS011;31738;50.188;8.524;2022-11-15T18:48:37;6.70;;;4.03;;
46006;SDS011;31738;50.188;8.524;2022-11-15T18:51:37;8.35;;;3.90;;
46006;SDS011;31738;50.188;8.524;2022-11-15T18:54:39;7.30;;;3.70;;
46006;SDS011;31738;50.188;8.524;2022-11-15T18:57:56;5.53;;;3.95;;
46006;SDS011;31738;50.188;8.524;2022-11-15T19:10:15;7.88;;;4.28;;
46006;SDS011;31738;50.188;8.524;2022-11-15T19:13:58;6.90;;;3.80;;
46006;SDS011;31738;50.188;8.524;2022-11-15T19:20:55;7.82;;;3.80;;
46006;SDS011;31738;50.188;8.524;2022-11-15T19:27:31;6.80;;;3.78;;
46006;SDS011;31738;50.188;8.524;2022-11-15T19:45:55;7.75;;;5.32;;
46006;SDS011;31738;50.188;8.524;2022-11-15T19:48:29;7.60;;;5.78;;
46006;SDS011;31738;50.188;8.524;2022-11-15T19:51:45;9.57;;;5.53;;
46006;SDS011;31738;50.188;8.524;2022-11-15T20:06:47;10.20;;;4.78;;
46006;SDS011;31738;50.188;8.524;2022-11-15T20:10:15;6.40;;;3.80;;
46006;SDS011;31738;50.188;8.524;2022-11-15T20:12:51;5.93;;;3.90;;
46006;SDS011;31738;50.188;8.524;2022-11-15T20:19:11;6.75;;;3.90;;
46006;SDS011;31738;50.188;8.524;2022-11-15T20:21:40;8.32;;;4.18;;
46006;SDS011;31738;50.188;8.524;2022-11-15T20:24:12;7.35;;;3.80;;
46006;SDS011;31738;50.188;8.524;2022-11-15T20:26:44;6.90;;;4.57;;
46006;SDS011;31738;50.188;8.524;2022-11-15T20:29:15;10.18;;;4.30;;
46006;SDS011;31738;50.188;8.524;2022-11-15T20:31:44;7.30;;;4.63;;